Time;durP1;ratioP1;P1;durP2;ratioP2;P2;SDS_P1;SDS_P2;PMS_P1;PMS_P2;Temp;Humidity;BMP_temperature;BMP_pressure;BME280_temperature;BME280_humidity;BME280_pressure;Samples;Min_cycle;Max_cycle;Signal;HPM_P1;HPM_P2
2022/10/18 00:00:13;;;;;;;6.93;0.90;;;16.70;99.90;;;;;;5037262;28;20436;-75
2022/10/18 00:02:40;;;;;;;0.83;0.70;;;16.70;99.90;;;;;;5039879;28;20832;-76
2022/10/18 00:05:08;;;;;;;1.63;0.70;;;16.70;99.90;;;;;;5037540;28;20478;-75
2022/10/18 00:07:35;;;;;;;1.50;0.90;;;16.70;99.90;;;;;;5039350;28;20538;-75
2022/10/18 00:10:02;;;;;;;1.60;0.80;;;16.70;99.90;;;;;;5039306;28;20506;-75
2022/10/18 00:12:29;;;;;;;1.33;0.70;;;16.60;99.90;;;;;;5039404;28;20455;-76
2022/10/18 00:14:57;;;;;;;1.47;0.70;;;16.60;99.90;;;;;;5038963;28;20931;-76
2022/10/18 00:17:24;;;;;;;1.30;0.70;;;16.60;99.90;;;;;;5040041;28;20448;-76
2022/10/18 00:19:51;;;;;;;1.60;0.77;;;16.60;99.90;;;;;;5039733;28;20752;-76
2022/10/18 00:22:18;;;;;;;1.07;0.77;;;16.60;99.90;;;;;;5038417;28;21047;-75
2022/10/18 00:24:45;;;;;;;1.17;0.87;;;16.60;99.90;;;;;;5034337;28;20538;-76
2022/10/18 00:27:12;;;;;;;1.57;0.80;;;16.60;99.90;;;;;;5037971;28;20484;-76
2022/10/18 00:29:39;;;;;;;1.23;0.90;;;16.60;99.90;;;;;;5035482;28;20460;-76
2022/10/18 00:32:10;;;;;;;1.30;0.80;;;16.50;99.90;;;;;;5037931;28;20452;-76
2022/10/18 00:34:38;;;;;;;1.70;0.80;;;16.50;99.90;;;;;;5038157;28;20487;-76
2022/10/18 00:37:05;;;;;;;2.67;0.80;;;16.40;99.90;;;;;;5038457;28;20436;-76
2022/10/18 00:39:32;;;;;;;1.10;0.80;;;16.50;99.90;;;;;;5034909;28;20514;-76
2022/10/18 00:41:59;;;;;;;1.20;0.87;;;16.40;99.90;;;;;;5037834;28;20510;-76
2022/10/18 00:45:02;;;;;;;1.10;0.70;;;16.40;99.90;;;;;;5037558;28;20459;-76
2022/10/18 00:47:31;;;;;;;2.40;0.80;;;16.40;99.90;;;;;;5038041;28;20582;-76
2022/10/18 00:50:03;;;;;;;1.23;0.70;;;16.30;99.90;;;;;;5037415;28;20440;-76
2022/10/18 00:52:34;;;;;;;2.40;0.90;;;16.30;99.90;;;;;;5036812;28;20908;-75
2022/10/18 00:55:02;;;;;;;0.80;0.60;;;16.20;99.90;;;;;;5035985;28;20454;-76
2022/10/18 00:57:29;;;;;;;1.83;0.80;;;16.20;99.90;;;;;;5036709;28;20451;-75
2022/10/18 00:59:56;;;;;;;3.57;0.77;;;16.10;99.90;;;;;;5033975;28;20516;-76
2022/10/18 01:02:24;;;;;;;2.50;0.70;;;16.20;99.90;;;;;;5036125;28;20448;-76
2022/10/18 01:04:52;;;;;;;2.17;0.63;;;16.20;99.90;;;;;;5036595;28;20456;-76
2022/10/18 01:07:34;;;;;;;1.30;0.80;;;16.30;99.90;;;;;;5037210;28;20533;-75
2022/10/18 01:10:10;;;;;;;0.87;0.60;;;16.40;99.90;;;;;;5036970;28;20456;-75
2022/10/18 01:12:47;;;;;;;1.50;0.70;;;16.30;99.90;;;;;;5037167;28;20482;-76
2022/10/18 01:15:23;;;;;;;1.30;0.80;;;16.30;99.90;;;;;;5036907;28;20472;-75
2022/10/18 01:17:59;;;;;;;2.97;0.67;;;16.30;99.90;;;;;;5037023;28;20876;-76
2022/10/18 01:20:54;;;;;;;2.73;0.70;;;16.30;99.90;;;;;;5034259;28;20492;-75
2022/10/18 01:23:32;;;;;;;1.03;0.80;;;16.30;99.90;;;;;;5036292;28;20456;-76
2022/10/18 01:26:08;;;;;;;1.57;0.70;;;16.30;99.90;;;;;;5037400;28;20460;-76
2022/10/18 01:28:52;;;;;;;2.70;0.70;;;16.20;99.90;;;;;;5036969;28;20511;-76
2022/10/18 01:31:23;;;;;;;2.40;0.70;;;16.20;99.90;;;;;;5035072;28;20479;-76
2022/10/18 01:33:53;;;;;;;1.47;0.70;;;16.30;99.90;;;;;;5037037;28;20815;-76
2022/10/18 01:36:25;;;;;;;1.03;0.70;;;16.40;99.90;;;;;;5036535;28;20464;-75
2022/10/18 01:38:56;;;;;;;0.80;0.60;;;16.40;99.90;;;;;;5036783;28;20543;-76
2022/10/18 01:41:26;;;;;;;1.00;0.60;;;16.40;99.90;;;;;;5035699;28;20813;-76
2022/10/18 01:43:58;;;;;;;1.30;0.63;;;16.40;99.90;;;;;;5036428;28;20452;-76
2022/10/18 01:46:28;;;;;;;0.90;0.70;;;16.50;99.90;;;;;;5036405;28;20519;-76
2022/10/18 01:48:56;;;;;;;1.97;0.70;;;16.50;96.90;;;;;;5036052;28;20444;-76
2022/10/18 01:51:25;;;;;;;2.53;0.90;;;16.50;90.90;;;;;;5033825;28;20495;-76
2022/10/18 01:53:52;;;;;;;2.40;0.70;;;16.50;87.80;;;;;;5036303;28;20506;-76
2022/10/18 01:56:31;;;;;;;1.20;0.63;;;16.50;89.40;;;;;;5036863;28;20490;-76
2022/10/18 01:59:21;;;;;;;2.17;0.70;;;16.50;88.50;;;;;;5036533;28;20444;-76
2022/10/18 02:01:55;;;;;;;1.10;0.60;;;16.50;80.00;;;;;;5036831;28;20498;-76
2022/10/18 02:04:32;;;;;;;1.10;0.60;;;16.50;87.30;;;;;;5036582;28;20444;-75
2022/10/18 02:07:06;;;;;;;0.90;0.70;;;16.60;87.70;;;;;;5037277;28;20542;-76
2022/10/18 02:09:38;;;;;;;2.93;0.70;;;16.60;77.80;;;;;;5036904;28;20856;-75
2022/10/18 02:12:08;;;;;;;1.00;0.60;;;16.70;84.40;;;;;;5039759;28;20498;-76
2022/10/18 02:14:37;;;;;;;1.60;0.70;;;16.60;68.60;;;;;;5038796;28;20935;-76
2022/10/18 02:17:09;;;;;;;1.87;0.80;;;16.60;61.00;;;;;;5039044;28;20502;-76
2022/10/18 02:19:40;;;;;;;1.00;0.60;;;16.60;80.20;;;;;;5039195;28;20760;-75
2022/10/18 02:22:08;;;;;;;0.97;0.70;;;16.70;61.20;;;;;;5039423;28;20518;-76
2022/10/18 02:24:38;;;;;;;0.70;0.60;;;16.60;73.30;;;;;;5038764;28;20456;-76
2022/10/18 02:27:05;;;;;;;1.47;0.70;;;16.70;87.40;;;;;;5038667;28;20484;-76
2022/10/18 02:29:33;;;;;;;1.73;0.67;;;16.70;88.20;;;;;;5036909;28;20467;-75
2022/10/18 02:32:09;;;;;;;1.00;0.67;;;16.80;90.60;;;;;;5039913;28;20523;-76
2022/10/18 02:34:39;;;;;;;0.80;0.60;;;16.80;93.60;;;;;;5040023;28;20474;-76
2022/10/18 02:37:08;;;;;;;0.67;0.60;;;16.80;66.10;;;;;;5040283;28;20502;-76
2022/10/18 02:39:37;;;;;;;1.00;0.63;;;16.70;64.20;;;;;;5041958;28;20492;-76
2022/10/18 02:42:06;;;;;;;3.83;0.63;;;16.70;64.50;;;;;;5045274;28;20498;-76
2022/10/18 02:44:33;;;;;;;1.10;0.60;;;16.70;65.00;;;;;;5044816;28;20471;-76
2022/10/18 02:47:01;;;;;;;1.07;0.50;;;16.70;54.70;;;;;;5044890;28;20562;-76
2022/10/18 02:49:29;;;;;;;0.90;0.60;;;16.70;64.00;;;;;;5044102;28;20822;-76
2022/10/18 02:51:56;;;;;;;1.07;0.73;;;16.70;54.20;;;;;;5044556;28;20452;-76
2022/10/18 02:54:23;;;;;;;1.57;0.53;;;16.70;50.50;;;;;;5044383;28;20429;-76
2022/10/18 02:56:50;;;;;;;0.87;0.70;;;16.70;45.30;;;;;;5043456;28;20448;-76
2022/10/18 02:59:17;;;;;;;1.77;0.60;;;16.70;46.90;;;;;;5043514;28;20452;-76
2022/10/18 03:01:44;;;;;;;2.47;0.70;;;16.70;51.90;;;;;;5043779;28;20449;-76
2022/10/18 03:04:11;;;;;;;0.80;0.70;;;16.70;47.70;;;;;;5043255;28;20433;-76
2022/10/18 03:06:40;;;;;;;1.67;0.60;;;16.80;57.90;;;;;;5042829;28;20470;-76
2022/10/18 03:09:07;;;;;;;1.00;0.50;;;16.80;44.10;;;;;;5043176;28;20452;-76
2022/10/18 03:11:34;;;;;;;1.07;0.70;;;16.80;61.70;;;;;;5042762;28;20448;-76
2022/10/18 03:14:01;;;;;;;1.43;0.60;;;16.80;56.00;;;;;;5039318;28;20476;-76
2022/10/18 03:16:28;;;;;;;2.50;0.60;;;16.80;46.50;;;;;;5038649;28;20456;-76
2022/10/18 03:18:55;;;;;;;0.60;0.50;;;16.70;46.20;;;;;;5037303;28;20502;-76
2022/10/18 03:21:22;;;;;;;0.87;0.60;;;16.70;47.40;;;;;;5034978;28;20456;-76
2022/10/18 03:23:51;;;;;;;0.77;0.60;;;16.70;51.70;;;;;;5038110;28;20499;-75
2022/10/18 03:26:17;;;;;;;1.60;0.53;;;16.70;52.90;;;;;;5035994;28;20464;-76
2022/10/18 03:28:44;;;;;;;2.20;0.77;;;16.70;50.90;;;;;;5038572;28;20480;-76
2022/10/18 03:31:11;;;;;;;1.33;0.70;;;16.60;51.90;;;;;;5038843;28;20455;-76
2022/10/18 03:33:38;;;;;;;0.90;0.70;;;16.70;64.20;;;;;;5038502;28;20479;-76
2022/10/18 03:36:06;;;;;;;1.33;0.80;;;16.70;51.30;;;;;;5038488;28;20506;-76
2022/10/18 03:38:33;;;;;;;1.03;0.60;;;16.70;54.20;;;;;;5039561;28;20451;-76
2022/10/18 03:41:01;;;;;;;0.83;0.60;;;16.70;56.00;;;;;;5037232;28;20757;-76
2022/10/18 03:43:28;;;;;;;0.77;0.50;;;16.70;57.10;;;;;;5039268;28;20441;-75
2022/10/18 03:45:55;;;;;;;1.07;0.67;;;16.70;53.10;;;;;;5039329;28;20456;-75
2022/10/18 03:48:22;;;;;;;0.70;0.50;;;16.80;49.80;;;;;;5038528;28;20476;-76
2022/10/18 03:50:49;;;;;;;2.50;0.70;;;16.80;47.90;;;;;;5038399;28;20522;-75
2022/10/18 03:53:16;;;;;;;1.33;0.70;;;16.80;47.60;;;;;;5038619;28;21067;-75
2022/10/18 03:55:43;;;;;;;1.80;0.63;;;16.70;49.00;;;;;;5038620;28;20510;-75
2022/10/18 03:58:11;;;;;;;1.10;0.60;;;16.70;51.00;;;;;;5038607;28;20449;-76
2022/10/18 04:00:38;;;;;;;4.20;0.80;;;16.60;53.80;;;;;;5039083;28;20456;-76
2022/10/18 04:03:05;;;;;;;1.00;0.60;;;16.60;56.60;;;;;;5038248;28;20467;-76
2022/10/18 04:05:33;;;;;;;2.10;0.80;;;16.60;54.80;;;;;;5041808;28;20437;-77
2022/10/18 04:08:00;;;;;;;0.70;0.60;;;16.60;56.30;;;;;;5046227;28;20484;-77
2022/10/18 04:10:27;;;;;;;1.30;0.50;;;16.60;57.50;;;;;;5043567;28;20771;-77
2022/10/18 04:12:54;;;;;;;1.37;0.70;;;16.60;58.00;;;;;;5049818;28;20448;-78
2022/10/18 04:15:22;;;;;;;1.33;0.67;;;16.60;61.10;;;;;;5048346;28;20448;-77
2022/10/18 04:17:49;;;;;;;1.23;0.60;;;16.60;66.00;;;;;;5039894;28;20490;-77
2022/10/18 04:20:17;;;;;;;1.03;0.60;;;16.50;61.80;;;;;;5037740;28;20452;-75
2022/10/18 04:22:44;;;;;;;1.77;0.50;;;16.50;64.80;;;;;;5037550;28;20459;-75
2022/10/18 04:25:10;;;;;;;1.40;0.67;;;16.50;67.50;;;;;;5031987;28;20751;-75
2022/10/18 04:27:37;;;;;;;1.00;0.67;;;16.50;72.30;;;;;;5035162;28;20492;-75
2022/10/18 04:30:06;;;;;;;1.20;0.60;;;16.60;67.90;;;;;;5033030;28;20460;-75
2022/10/18 04:32:34;;;;;;;2.87;0.67;;;16.60;66.20;;;;;;5035015;28;20811;-75
2022/10/18 04:35:02;;;;;;;1.27;0.70;;;16.60;62.30;;;;;;5035499;28;20467;-75
2022/10/18 04:37:29;;;;;;;2.60;0.60;;;16.60;63.90;;;;;;5035755;28;20801;-74
2022/10/18 04:39:56;;;;;;;0.90;0.60;;;16.60;72.90;;;;;;5035838;28;20459;-74
2022/10/18 04:42:23;;;;;;;0.87;0.60;;;16.60;79.00;;;;;;5037387;28;20506;-74
2022/10/18 04:44:51;;;;;;;1.40;0.70;;;16.60;74.80;;;;;;5035968;28;20876;-74
2022/10/18 04:47:18;;;;;;;2.40;0.70;;;16.60;79.70;;;;;;5037326;28;20510;-74
2022/10/18 04:49:46;;;;;;;1.87;0.70;;;16.50;78.20;;;;;;5019977;28;20487;-73
2022/10/18 04:52:14;;;;;;;1.40;0.70;;;16.60;79.80;;;;;;5037165;28;20437;-73
2022/10/18 04:54:42;;;;;;;1.10;0.70;;;16.90;61.00;;;;;;5033668;28;20209;-73
2022/10/18 04:57:09;;;;;;;1.20;0.60;;;17.20;40.40;;;;;;5034811;28;20462;-73
2022/10/18 04:59:37;;;;;;;1.20;0.60;;;17.50;21.40;;;;;;5035362;28;20498;-74
2022/10/18 05:02:04;;;;;;;0.90;0.60;;;17.80;12.90;;;;;;5036660;28;20453;-74
2022/10/18 05:04:31;;;;;;;1.00;0.60;;;18.00;5.40;;;;;;5036350;28;20543;-74
2022/10/18 05:06:59;;;;;;;2.20;0.60;;;18.00;1.00;;;;;;5035987;28;20452;-73
2022/10/18 05:09:26;;;;;;;0.93;0.70;;;18.10;1.00;;;;;;5035923;28;20487;-73
2022/10/18 05:11:53;;;;;;;4.80;0.70;;;18.30;1.00;;;;;;5036718;28;20904;-74
2022/10/18 05:14:20;;;;;;;0.80;0.60;;;18.30;1.00;;;;;;5036342;28;20943;-74
2022/10/18 05:16:56;;;;;;;0.70;0.57;;;18.40;1.00;;;;;;5036193;28;20459;-73
2022/10/18 05:19:24;;;;;;;0.83;0.60;;;18.40;1.00;;;;;;5031526;28;20918;-73
2022/10/18 05:21:52;;;;;;;1.40;0.70;;;18.40;1.00;;;;;;5035498;28;20460;-73
2022/10/18 05:24:20;;;;;;;1.03;0.60;;;18.40;1.00;;;;;;5032225;28;20734;-73
2022/10/18 05:26:47;;;;;;;1.90;0.60;;;18.30;1.00;;;;;;5036356;28;20879;-73
2022/10/18 05:29:14;;;;;;;0.80;0.57;;;18.20;1.00;;;;;;5032053;28;20548;-74
2022/10/18 05:31:41;;;;;;;3.83;0.60;;;18.10;1.00;;;;;;5036533;28;20604;-74
2022/10/18 05:34:09;;;;;;;0.80;0.60;;;18.00;1.00;;;;;;5035757;28;20439;-74
2022/10/18 05:36:36;;;;;;;2.30;0.70;;;17.90;1.00;;;;;;5018721;28;20876;-74
2022/10/18 05:39:08;;;;;;;0.87;0.60;;;17.80;10.90;;;;;;5035742;28;20440;-74
2022/10/18 05:41:36;;;;;;;1.50;0.70;;;17.70;7.50;;;;;;5035670;28;20836;-74
2022/10/18 05:44:04;;;;;;;0.80;0.60;;;17.70;8.00;;;;;;5040743;28;20569;-74
2022/10/18 05:46:33;;;;;;;0.90;0.60;;;17.60;13.30;;;;;;5038422;28;20883;-74
2022/10/18 05:49:00;;;;;;;1.77;0.70;;;17.50;20.00;;;;;;5040075;28;20489;-73
2022/10/18 05:51:27;;;;;;;0.90;0.63;;;17.50;18.10;;;;;;5040753;28;20514;-73
2022/10/18 05:53:54;;;;;;;0.97;0.60;;;17.50;16.40;;;;;;5040420;28;20448;-73
2022/10/18 05:56:21;;;;;;;0.87;0.70;;;17.50;20.70;;;;;;5038347;28;20542;-73
2022/10/18 05:58:51;;;;;;;5.03;0.80;;;17.40;23.20;;;;;;5039871;28;20506;-73
2022/10/18 06:01:19;;;;;;;0.93;0.70;;;17.40;25.10;;;;;;5038718;28;20532;-73
2022/10/18 06:03:46;;;;;;;4.10;0.60;;;17.40;28.00;;;;;;5037543;28;20510;-73
2022/10/18 06:06:15;;;;;;;1.10;0.60;;;17.30;27.40;;;;;;5038893;28;20460;-73
2022/10/18 06:08:43;;;;;;;1.17;0.70;;;17.30;27.80;;;;;;5039314;28;20487;-73
2022/10/18 06:11:12;;;;;;;1.30;0.70;;;17.30;29.60;;;;;;5039714;28;20456;-73
2022/10/18 06:13:43;;;;;;;2.60;0.60;;;17.30;29.10;;;;;;5039588;28;20483;-74
2022/10/18 06:16:13;;;;;;;1.30;0.60;;;17.30;31.40;;;;;;5038703;28;20448;-74
2022/10/18 06:18:40;;;;;;;0.70;0.60;;;17.30;35.40;;;;;;5037858;28;20930;-74
2022/10/18 06:21:08;;;;;;;1.20;0.70;;;17.30;33.10;;;;;;5036609;28;20596;-74
2022/10/18 06:23:36;;;;;;;0.90;0.70;;;17.30;33.30;;;;;;5036874;28;20455;-75
2022/10/18 06:26:05;;;;;;;1.97;0.70;;;17.40;31.70;;;;;;5038183;28;20514;-74
2022/10/18 06:28:34;;;;;;;0.90;0.60;;;17.50;30.90;;;;;;5037343;28;20475;-75
2022/10/18 06:31:02;;;;;;;2.80;0.63;;;17.60;26.00;;;;;;5038210;28;20526;-74
2022/10/18 06:33:32;;;;;;;0.73;0.50;;;17.70;25.30;;;;;;5038324;28;20449;-74
2022/10/18 06:36:01;;;;;;;0.90;0.67;;;17.90;20.60;;;;;;5034803;28;21122;-75
2022/10/18 06:38:29;;;;;;;0.70;0.50;;;18.00;7.90;;;;;;5035801;28;20518;-74
2022/10/18 06:40:57;;;;;;;1.97;0.70;;;18.10;6.90;;;;;;5031456;28;20559;-74
2022/10/18 06:43:26;;;;;;;1.67;0.60;;;18.10;4.50;;;;;;5025606;28;20541;-74
2022/10/18 06:45:53;;;;;;;0.93;0.60;;;18.20;1.00;;;;;;5036535;28;20468;-74
2022/10/18 06:48:21;;;;;;;1.20;0.70;;;18.20;1.00;;;;;;5038264;28;20767;-74
2022/10/18 06:50:54;;;;;;;0.90;0.60;;;18.30;1.00;;;;;;5035870;28;20464;-74
2022/10/18 06:53:21;;;;;;;1.10;0.60;;;18.40;1.00;;;;;;5036768;28;21158;-74
2022/10/18 06:55:48;;;;;;;1.10;0.70;;;18.50;1.00;;;;;;5035145;28;20775;-75
2022/10/18 06:58:15;;;;;;;0.90;0.63;;;18.50;1.00;;;;;;5036562;28;20445;-75
2022/10/18 07:00:44;;;;;;;1.77;0.60;;;18.50;1.00;;;;;;5035724;28;20459;-75
2022/10/18 07:03:11;;;;;;;3.83;0.67;;;18.60;1.00;;;;;;5035042;28;20448;-74
2022/10/18 07:05:38;;;;;;;1.40;0.50;;;18.60;1.00;;;;;;5033358;28;20460;-75
2022/10/18 07:08:06;;;;;;;1.90;0.70;;;18.60;1.00;;;;;;5026458;28;20456;-74
2022/10/18 07:10:33;;;;;;;1.63;0.60;;;18.60;1.00;;;;;;5032771;28;20460;-74
2022/10/18 07:13:00;;;;;;;1.37;0.60;;;18.70;1.00;;;;;;5034128;28;20452;-78
2022/10/18 07:15:28;;;;;;;0.70;0.50;;;18.70;1.00;;;;;;5039178;28;20460;-78
2022/10/18 07:17:55;;;;;;;1.20;0.73;;;18.70;1.00;;;;;;5036729;28;20547;-76
2022/10/18 07:20:22;;;;;;;1.47;0.77;;;18.90;1.00;;;;;;5036714;28;20815;-78
2022/10/18 07:22:49;;;;;;;2.13;0.70;;;18.90;1.00;;;;;;5037517;28;20448;-78
2022/10/18 07:25:20;;;;;;;0.80;0.50;;;18.90;1.00;;;;;;5031075;28;20524;-77
2022/10/18 07:27:47;;;;;;;0.83;0.50;;;19.00;1.00;;;;;;5037447;28;20452;-76
2022/10/18 07:30:15;;;;;;;1.00;0.70;;;19.10;1.00;;;;;;5037442;28;20476;-77
2022/10/18 07:32:42;;;;;;;1.00;0.70;;;19.20;1.00;;;;;;5035801;28;20798;-77
2022/10/18 07:35:09;;;;;;;0.90;0.57;;;19.20;1.00;;;;;;5036280;28;20514;-77
2022/10/18 07:37:36;;;;;;;0.90;0.60;;;19.30;1.00;;;;;;5033516;28;20543;-77
2022/10/18 07:40:03;;;;;;;0.97;0.60;;;19.30;1.00;;;;;;5038035;28;20479;-73
2022/10/18 07:42:34;;;;;;;1.20;1.00;;;19.40;1.00;;;;;;5026053;28;20515;-75
2022/10/18 07:45:01;;;;;;;1.57;0.70;;;19.40;1.00;;;;;;5034342;28;20506;-75
2022/10/18 07:47:28;;;;;;;0.77;0.60;;;19.50;1.00;;;;;;5035885;28;20499;-75
2022/10/18 07:49:55;;;;;;;0.70;0.60;;;19.50;1.00;;;;;;5035751;28;20484;-74
2022/10/18 07:52:22;;;;;;;0.97;0.70;;;19.60;1.00;;;;;;5038023;28;20764;-73
2022/10/18 07:54:49;;;;;;;2.10;0.50;;;19.60;1.00;;;;;;5037020;28;20510;-74
2022/10/18 07:57:16;;;;;;;2.90;0.80;;;19.60;1.00;;;;;;5034387;28;20741;-73
2022/10/18 07:59:55;;;;;;;0.90;0.60;;;19.60;1.00;;;;;;5033576;28;20490;-73
2022/10/18 08:02:22;;;;;;;2.37;0.80;;;19.70;1.00;;;;;;5034546;28;20456;-74
2022/10/18 08:04:49;;;;;;;0.80;0.60;;;19.70;1.00;;;;;;5024601;28;20548;-74
2022/10/18 08:07:16;;;;;;;1.67;0.67;;;19.70;1.00;;;;;;5031346;28;20499;-73
2022/10/18 08:09:43;;;;;;;2.23;0.70;;;19.70;1.00;;;;;;5037535;28;20943;-73
2022/10/18 08:12:10;;;;;;;1.30;0.63;;;19.70;1.00;;;;;;5032346;28;20468;-75
2022/10/18 08:14:37;;;;;;;2.00;0.70;;;19.80;1.00;;;;;;5038117;28;20480;-74
2022/10/18 08:17:06;;;;;;;1.20;0.70;;;19.80;1.00;;;;;;5037760;28;20467;-76
2022/10/18 08:19:33;;;;;;;3.07;0.70;;;19.80;1.00;;;;;;5037595;28;20490;-76
2022/10/18 08:22:00;;;;;;;1.00;0.67;;;19.80;1.00;;;;;;5038476;28;20720;-77
2022/10/18 08:24:30;;;;;;;1.00;0.70;;;19.90;1.00;;;;;;5036750;28;20452;-77
2022/10/18 08:26:58;;;;;;;1.20;0.70;;;19.80;1.00;;;;;;5034463;28;20962;-78
2022/10/18 08:29:25;;;;;;;1.63;0.80;;;19.80;1.00;;;;;;5035875;28;20923;-78
2022/10/18 08:31:52;;;;;;;0.90;0.60;;;19.90;1.00;;;;;;5036630;28;20934;-78
2022/10/18 08:34:21;;;;;;;5.80;0.70;;;19.80;1.00;;;;;;5016660;28;20950;-77
2022/10/18 08:36:48;;;;;;;0.90;0.70;;;19.90;1.00;;;;;;5037674;28;20570;-78
2022/10/18 08:39:15;;;;;;;1.23;0.70;;;19.90;1.00;;;;;;5037503;28;20522;-78
2022/10/18 08:42:04;;;;;;;0.97;0.63;;;19.90;1.00;;;;;;5037354;28;20448;-79
2022/10/18 08:44:32;;;;;;;1.00;0.60;;;19.90;1.00;;;;;;5013979;28;20464;-77
2022/10/18 08:47:04;;;;;;;5.53;0.80;;;19.90;1.00;;;;;;5017963;28;20449;-78
2022/10/18 08:49:39;;;;;;;1.20;0.70;;;20.00;1.00;;;;;;5017405;28;20483;-78
2022/10/18 08:52:18;;;;;;;1.20;0.70;;;20.10;1.00;;;;;;5016576;28;20807;-78
2022/10/18 08:54:53;;;;;;;1.33;0.60;;;20.10;1.00;;;;;;5030737;28;20460;-78
2022/10/18 08:57:21;;;;;;;1.50;0.77;;;20.10;1.00;;;;;;5035378;28;20742;-78
2022/10/18 08:59:48;;;;;;;0.90;0.70;;;20.10;1.00;;;;;;5033490;28;20463;-78
2022/10/18 09:02:31;;;;;;;2.10;0.70;;;20.10;1.00;;;;;;5035736;28;20739;-77
2022/10/18 09:05:09;;;;;;;1.30;0.70;;;20.20;1.00;;;;;;5032510;28;20456;-79
2022/10/18 09:08:10;;;;;;;1.73;0.70;;;20.20;1.00;;;;;;5034078;28;20480;-77
2022/10/18 09:10:44;;;;;;;1.37;0.70;;;20.30;1.00;;;;;;5014353;28;20546;-78
2022/10/18 09:13:37;;;;;;;1.10;0.70;;;20.40;1.00;;;;;;5023776;28;20876;-78
2022/10/18 09:16:06;;;;;;;0.90;0.60;;;20.60;1.00;;;;;;5018096;28;20452;-78
2022/10/18 09:18:51;;;;;;;2.50;0.70;;;20.60;1.00;;;;;;5034199;28;20472;-77
2022/10/18 09:21:24;;;;;;;1.20;0.80;;;20.70;1.00;;;;;;5035419;28;20452;-77
2022/10/18 09:24:03;;;;;;;0.90;0.70;;;20.80;1.00;;;;;;5035675;28;20455;-77
2022/10/18 09:26:41;;;;;;;1.40;0.63;;;20.90;1.00;;;;;;5034369;28;20798;-79
2022/10/18 09:29:28;;;;;;;1.13;0.70;;;20.90;1.00;;;;;;5034289;28;20523;-77
2022/10/18 09:32:03;;;;;;;1.30;0.70;;;21.10;1.00;;;;;;5034647;28;20444;-76
2022/10/18 09:34:37;;;;;;;0.80;0.60;;;21.30;1.00;;;;;;5032951;28;20559;-76
2022/10/18 09:37:11;;;;;;;0.70;0.50;;;21.50;1.00;;;;;;5034663;28;20449;-76
2022/10/18 09:39:39;;;;;;;2.22;0.60;;;21.70;99.90;;;;;;5038246;28;20891;-76
2022/10/18 09:42:14;;;;;;;0.90;0.60;;;21.80;99.90;;;;;;5036110;28;20208;-77
2022/10/18 09:44:47;;;;;;;1.63;0.60;;;21.60;1.00;;;;;;5014726;28;20486;-77
2022/10/18 09:47:20;;;;;;;2.10;0.70;;;21.50;1.00;;;;;;5034929;28;20757;-76
2022/10/18 09:49:52;;;;;;;0.90;0.60;;;21.40;1.00;;;;;;5035013;28;20494;-76
2022/10/18 09:52:27;;;;;;;1.00;0.80;;;21.50;1.00;;;;;;5035924;28;20888;-76
2022/10/18 09:54:59;;;;;;;1.40;0.70;;;21.40;1.00;;;;;;5028948;28;20468;-76
2022/10/18 09:57:32;;;;;;;1.43;0.70;;;21.40;1.00;;;;;;5024538;28;20555;-76
2022/10/18 10:00:02;;;;;;;2.23;0.80;;;21.30;1.00;;;;;;5031234;28;20453;-76
2022/10/18 10:02:29;;;;;;;1.57;0.70;;;21.30;1.00;;;;;;5036022;28;20452;-76
2022/10/18 10:04:56;;;;;;;4.80;0.70;;;21.00;1.00;;;;;;5035773;28;20460;-76
2022/10/18 10:07:27;;;;;;;3.20;0.60;;;20.90;1.00;;;;;;5056574;28;20494;-76
2022/10/18 10:09:58;;;;;;;2.20;0.77;;;21.00;1.00;;;;;;5036480;28;20839;-76
2022/10/18 10:12:30;;;;;;;1.07;0.70;;;20.90;1.00;;;;;;5035886;28;20456;-76
2022/10/18 10:15:09;;;;;;;1.00;0.73;;;20.90;1.00;;;;;;5035757;28;20488;-76
2022/10/18 10:17:36;;;;;;;1.67;0.80;;;20.90;1.00;;;;;;5035466;28;20532;-76
2022/10/18 10:20:17;;;;;;;1.60;0.70;;;20.90;1.00;;;;;;5032870;28;20743;-75
2022/10/18 10:22:46;;;;;;;1.37;0.70;;;21.00;1.00;;;;;;5014944;28;20888;-75
2022/10/18 10:25:22;;;;;;;1.67;0.60;;;20.90;1.00;;;;;;5032170;28;20530;-75
2022/10/18 10:27:50;;;;;;;2.37;0.80;;;21.10;1.00;;;;;;5039207;28;20786;-76
2022/10/18 10:30:26;;;;;;;3.13;0.80;;;21.40;1.00;;;;;;5042159;28;20484;-76
2022/10/18 10:32:55;;;;;;;1.40;0.90;;;21.60;1.00;;;;;;5038678;28;20478;-75
2022/10/18 10:35:30;;;;;;;2.10;0.73;;;21.70;1.00;;;;;;5037427;28;20455;-76
2022/10/18 10:37:58;;;;;;;4.33;1.60;;;21.80;1.00;;;;;;5042297;28;20511;-77
2022/10/18 10:40:27;;;;;;;1.30;1.10;;;22.00;1.00;;;;;;5043973;28;20472;-76
2022/10/18 10:43:04;;;;;;;1.20;0.70;;;21.90;99.90;;;;;;5040260;28;20444;-75
2022/10/18 10:45:34;;;;;;;1.97;0.70;;;22.50;99.90;;;;;;5037855;28;20479;-76
2022/10/18 10:48:16;;;;;;;1.58;1.00;;;23.10;1.00;;;;;;5040730;28;20507;-76
2022/10/18 10:50:56;;;;;;;1.17;0.90;;;23.10;1.00;;;;;;5038885;28;20220;-76
2022/10/18 10:53:39;;;;;;;1.57;0.90;;;23.10;1.00;;;;;;5040147;28;20441;-76
2022/10/18 10:56:17;;;;;;;7.60;6.80;;;22.90;1.00;;;;;;5040694;28;20848;-77
2022/10/18 10:58:46;;;;;;;1.77;0.80;;;22.70;1.00;;;;;;5040404;28;20495;-77
2022/10/18 11:01:32;;;;;;;1.23;0.80;;;22.40;1.00;;;;;;5035703;28;20476;-77
2022/10/18 11:04:01;;;;;;;1.50;0.90;;;22.20;99.90;;;;;;5032506;28;20501;-75
2022/10/18 11:06:56;;;;;;;1.60;0.90;;;22.10;99.90;;;;;;5032783;28;20926;-75
2022/10/18 11:09:47;;;;;;;1.77;0.77;;;21.90;1.00;;;;;;5017155;28;20526;-75
2022/10/18 11:12:32;;;;;;;1.20;0.80;;;21.80;1.00;;;;;;5020196;28;20519;-75
2022/10/18 11:15:35;;;;;;;3.33;0.80;;;21.70;1.00;;;;;;5018708;28;20572;-75
2022/10/18 11:18:13;;;;;;;2.33;0.80;;;21.70;1.00;;;;;;4957713;28;20447;-74
2022/10/18 11:20:43;;;;;;;1.37;0.80;;;21.70;1.00;;;;;;4957618;28;20555;-74
2022/10/18 11:23:12;;;;;;;1.10;0.70;;;22.10;1.00;;;;;;5003242;28;20452;-73
2022/10/18 11:25:50;;;;;;;1.10;0.80;;;22.30;1.00;;;;;;5023379;28;20547;-75
2022/10/18 11:28:33;;;;;;;1.00;0.77;;;22.50;99.90;;;;;;5029460;28;20448;-74
2022/10/18 11:31:14;;;;;;;1.37;0.73;;;22.70;98.60;;;;;;5035720;28;20534;-74
2022/10/18 11:33:55;;;;;;;1.20;0.80;;;22.70;1.00;;;;;;5037151;28;20448;-75
2022/10/18 11:36:29;;;;;;;1.10;0.80;;;22.40;99.90;;;;;;5036287;28;20452;-75
2022/10/18 11:39:05;;;;;;;1.30;0.80;;;22.30;99.90;;;;;;5035789;28;20505;-74
2022/10/18 11:41:39;;;;;;;3.30;0.90;;;22.20;1.00;;;;;;5036779;28;20898;-75
2022/10/18 11:44:18;;;;;;;1.40;0.90;;;22.20;1.00;;;;;;5037809;28;20455;-74
2022/10/18 11:47:00;;;;;;;1.80;0.90;;;22.20;1.00;;;;;;5039025;28;20455;-74
2022/10/18 11:49:57;;;;;;;1.13;0.90;;;22.10;1.00;;;;;;5037262;28;20887;-73
2022/10/18 11:52:36;;;;;;;1.57;0.80;;;22.10;1.00;;;;;;5015512;28;20622;-75
2022/10/18 11:55:27;;;;;;;1.70;0.70;;;22.10;1.00;;;;;;5029837;28;20874;-74
2022/10/18 11:58:03;;;;;;;2.27;0.87;;;22.10;1.00;;;;;;5037361;28;20906;-75
2022/10/18 12:00:44;;;;;;;1.30;0.73;;;22.20;1.00;;;;;;5031773;28;20863;-75
2022/10/18 12:03:38;;;;;;;1.47;0.60;;;22.50;99.90;;;;;;5036582;28;20444;-76
2022/10/18 12:06:15;;;;;;;1.57;0.80;;;22.40;99.90;;;;;;5035668;28;20444;-74
2022/10/18 12:08:46;;;;;;;2.10;0.80;;;22.40;99.90;;;;;;5032640;28;20506;-74
2022/10/18 12:11:16;;;;;;;2.43;0.90;;;22.30;1.00;;;;;;5037588;28;20480;-74
2022/10/18 12:13:49;;;;;;;1.00;0.70;;;22.30;1.00;;;;;;5036680;28;21154;-74
2022/10/18 12:16:19;;;;;;;1.87;0.73;;;22.20;1.00;;;;;;5036219;28;20455;-73
2022/10/18 12:18:52;;;;;;;1.97;0.80;;;22.20;1.00;;;;;;5036093;28;20736;-75
2022/10/18 12:21:22;;;;;;;2.03;0.80;;;22.30;1.00;;;;;;5036805;28;20445;-76
2022/10/18 12:23:53;;;;;;;2.57;0.80;;;22.20;1.00;;;;;;5036667;28;20456;-75
2022/10/18 12:26:21;;;;;;;1.00;0.80;;;22.30;1.00;;;;;;5037214;28;20440;-75
2022/10/18 12:28:58;;;;;;;3.40;0.60;;;22.20;99.90;;;;;;5037844;28;20491;-75
2022/10/18 12:31:32;;;;;;;0.70;0.40;;;22.10;66.30;;;;;;5035707;28;20484;-74
2022/10/18 12:34:03;;;;;;;0.80;0.80;;;22.00;1.00;;;;;;5040325;28;20456;-76
2022/10/18 12:36:58;;;;;;;0.80;0.40;;;21.80;1.00;;;;;;5038338;28;21052;-75
2022/10/18 12:39:30;;;;;;;0.67;0.40;;;21.70;99.90;;;;;;5010197;28;20452;-75
2022/10/18 12:41:57;;;;;;;2.80;0.60;;;21.60;1.00;;;;;;5036804;28;20510;-74
2022/10/18 12:44:31;;;;;;;1.53;0.57;;;21.60;1.00;;;;;;5037026;28;20500;-75
2022/10/18 12:47:00;;;;;;;0.80;0.50;;;21.70;1.00;;;;;;5042307;28;20510;-74
2022/10/18 12:49:30;;;;;;;1.83;0.60;;;21.80;1.00;;;;;;5032143;28;20965;-75
2022/10/18 12:51:59;;;;;;;0.60;0.40;;;21.60;1.00;;;;;;5035863;28;20499;-75
2022/10/18 12:54:29;;;;;;;0.80;0.57;;;21.70;1.00;;;;;;5031347;28;20517;-75
2022/10/18 12:56:57;;;;;;;0.87;0.50;;;21.70;1.00;;;;;;5033812;28;20448;-74
2022/10/18 12:59:52;;;;;;;0.63;0.43;;;21.70;1.00;;;;;;5033421;28;20558;-74
2022/10/18 13:02:30;;;;;;;1.00;0.60;;;21.70;1.00;;;;;;5030446;28;20502;-75
2022/10/18 13:04:59;;;;;;;0.70;0.50;;;21.50;1.00;;;;;;5033091;28;20444;-75
2022/10/18 13:07:42;;;;;;;4.20;0.60;;;21.60;1.00;;;;;;5033728;28;20483;-75
2022/10/18 13:10:39;;;;;;;1.23;0.60;;;21.60;1.00;;;;;;5034035;28;20472;-75
2022/10/18 13:13:22;;;;;;;0.83;0.70;;;21.60;1.00;;;;;;5032150;28;20464;-75